sensor_id;sensor_type;location;lat;lon;timestamp;P1;durP1;ratioP1;P2;durP2;ratioP2
80195;SDS011;69516;42.050;21.516;2024-03-06T00:01:51;19.05;;;10.40;;
80195;SDS011;69516;42.050;21.516;2024-03-06T00:04:17;18.92;;;10.63;;
80195;SDS011;69516;42.050;21.516;2024-03-06T00:06:43;20.25;;;10.85;;
80195;SDS011;69516;42.050;21.516;2024-03-06T00:09:10;19.40;;;10.07;;
80195;SDS011;69516;42.050;21.516;2024-03-06T00:11:37;23.60;;;11.88;;
80195;SDS011;69516;42.050;21.516;2024-03-06T00:14:03;22.45;;;10.95;;
80195;SDS011;69516;42.050;21.516;2024-03-06T00:16:32;17.67;;;9.80;;
80195;SDS011;69516;42.050;21.516;2024-03-06T00:18:59;20.38;;;11.82;;
80195;SDS011;69516;42.050;21.516;2024-03-06T00:21:25;18.63;;;10.10;;
80195;SDS011;69516;42.050;21.516;2024-03-06T00:23:51;18.80;;;9.68;;
80195;SDS011;69516;42.050;21.516;2024-03-06T00:26:17;15.82;;;8.52;;
80195;SDS011;69516;42.050;21.516;2024-03-06T00:28:43;19.00;;;9.68;;
80195;SDS011;69516;42.050;21.516;2024-03-06T00:31:09;19.95;;;10.30;;
80195;SDS011;69516;42.050;21.516;2024-03-06T00:33:36;17.38;;;8.45;;
80195;SDS011;69516;42.050;21.516;2024-03-06T00:36:02;15.13;;;7.50;;
80195;SDS011;69516;42.050;21.516;2024-03-06T00:38:28;16.58;;;8.93;;
80195;SDS011;69516;42.050;21.516;2024-03-06T00:40:54;14.35;;;7.88;;
80195;SDS011;69516;42.050;21.516;2024-03-06T00:43:22;17.45;;;7.45;;
80195;SDS011;69516;42.050;21.516;2024-03-06T00:45:48;15.48;;;7.78;;
80195;SDS011;69516;42.050;21.516;2024-03-06T00:48:14;13.40;;;7.28;;
80195;SDS011;69516;42.050;21.516;2024-03-06T00:50:50;17.23;;;7.82;;
80195;SDS011;69516;42.050;21.516;2024-03-06T00:53:16;13.65;;;7.32;;
80195;SDS011;69516;42.050;21.516;2024-03-06T00:55:42;18.77;;;8.27;;
80195;SDS011;69516;42.050;21.516;2024-03-06T00:58:08;14.98;;;9.02;;
80195;SDS011;69516;42.050;21.516;2024-03-06T01:00:34;17.55;;;8.70;;
80195;SDS011;69516;42.050;21.516;2024-03-06T01:03:00;16.58;;;9.05;;
80195;SDS011;69516;42.050;21.516;2024-03-06T01:05:26;19.30;;;9.68;;
80195;SDS011;69516;42.050;21.516;2024-03-06T01:07:52;19.60;;;9.45;;
80195;SDS011;69516;42.050;21.516;2024-03-06T01:10:19;16.85;;;8.80;;
80195;SDS011;69516;42.050;21.516;2024-03-06T01:12:45;18.95;;;9.20;;
80195;SDS011;69516;42.050;21.516;2024-03-06T01:15:12;17.35;;;9.45;;
80195;SDS011;69516;42.050;21.516;2024-03-06T01:17:38;16.35;;;8.77;;
80195;SDS011;69516;42.050;21.516;2024-03-06T01:20:04;20.10;;;9.88;;
80195;SDS011;69516;42.050;21.516;2024-03-06T01:22:34;19.67;;;9.70;;
80195;SDS011;69516;42.050;21.516;2024-03-06T01:25:00;20.95;;;10.07;;
80195;SDS011;69516;42.050;21.516;2024-03-06T01:27:26;21.58;;;9.60;;
80195;SDS011;69516;42.050;21.516;2024-03-06T01:29:52;17.92;;;10.02;;
80195;SDS011;69516;42.050;21.516;2024-03-06T01:32:19;18.58;;;9.88;;
80195;SDS011;69516;42.050;21.516;2024-03-06T01:34:45;18.95;;;9.63;;
80195;SDS011;69516;42.050;21.516;2024-03-06T01:37:11;17.92;;;9.25;;
80195;SDS011;69516;42.050;21.516;2024-03-06T01:39:37;16.55;;;8.77;;
80195;SDS011;69516;42.050;21.516;2024-03-06T01:42:03;15.80;;;8.63;;
80195;SDS011;69516;42.050;21.516;2024-03-06T01:44:29;17.05;;;8.05;;
80195;SDS011;69516;42.050;21.516;2024-03-06T01:46:55;17.08;;;8.70;;
80195;SDS011;69516;42.050;21.516;2024-03-06T01:49:21;17.40;;;8.48;;
80195;SDS011;69516;42.050;21.516;2024-03-06T01:51:48;14.77;;;8.32;;
80195;SDS011;69516;42.050;21.516;2024-03-06T01:54:15;16.75;;;8.48;;
80195;SDS011;69516;42.050;21.516;2024-03-06T01:56:45;19.40;;;9.90;;
80195;SDS011;69516;42.050;21.516;2024-03-06T01:59:21;18.05;;;9.27;;
80195;SDS011;69516;42.050;21.516;2024-03-06T02:01:52;16.85;;;8.80;;
80195;SDS011;69516;42.050;21.516;2024-03-06T02:04:18;16.92;;;9.40;;
80195;SDS011;69516;42.050;21.516;2024-03-06T02:06:45;16.80;;;8.68;;
80195;SDS011;69516;42.050;21.516;2024-03-06T02:09:12;17.08;;;8.77;;
80195;SDS011;69516;42.050;21.516;2024-03-06T02:11:39;18.42;;;9.45;;
80195;SDS011;69516;42.050;21.516;2024-03-06T02:14:05;17.40;;;9.52;;
80195;SDS011;69516;42.050;21.516;2024-03-06T02:16:35;19.95;;;9.40;;
80195;SDS011;69516;42.050;21.516;2024-03-06T02:19:01;20.02;;;9.55;;
80195;SDS011;69516;42.050;21.516;2024-03-06T02:21:28;19.08;;;9.32;;
80195;SDS011;69516;42.050;21.516;2024-03-06T02:23:54;17.63;;;9.00;;
80195;SDS011;69516;42.050;21.516;2024-03-06T02:26:21;16.30;;;8.75;;
80195;SDS011;69516;42.050;21.516;2024-03-06T02:28:51;17.75;;;9.40;;
80195;SDS011;69516;42.050;21.516;2024-03-06T02:31:18;18.67;;;9.23;;
80195;SDS011;69516;42.050;21.516;2024-03-06T02:33:45;21.10;;;9.38;;
80195;SDS011;69516;42.050;21.516;2024-03-06T02:36:12;17.33;;;9.43;;
80195;SDS011;69516;42.050;21.516;2024-03-06T02:38:39;19.77;;;10.02;;
80195;SDS011;69516;42.050;21.516;2024-03-06T02:41:05;18.05;;;9.82;;
80195;SDS011;69516;42.050;21.516;2024-03-06T02:43:35;18.83;;;9.45;;
80195;SDS011;69516;42.050;21.516;2024-03-06T02:46:01;20.02;;;9.57;;
80195;SDS011;69516;42.050;21.516;2024-03-06T02:48:28;17.00;;;8.38;;
80195;SDS011;69516;42.050;21.516;2024-03-06T02:50:54;17.90;;;8.32;;
80195;SDS011;69516;42.050;21.516;2024-03-06T02:53:21;19.30;;;9.00;;
80195;SDS011;69516;42.050;21.516;2024-03-06T02:55:47;16.45;;;9.27;;
80195;SDS011;69516;42.050;21.516;2024-03-06T02:58:14;28.50;;;10.93;;
80195;SDS011;69516;42.050;21.516;2024-03-06T03:00:41;20.13;;;9.70;;
80195;SDS011;69516;42.050;21.516;2024-03-06T03:03:08;17.65;;;9.35;;
80195;SDS011;69516;42.050;21.516;2024-03-06T03:05:34;18.42;;;8.68;;
80195;SDS011;69516;42.050;21.516;2024-03-06T03:08:00;17.35;;;8.52;;
80195;SDS011;69516;42.050;21.516;2024-03-06T03:10:26;18.85;;;8.70;;
80195;SDS011;69516;42.050;21.516;2024-03-06T03:12:52;14.23;;;8.20;;
80195;SDS011;69516;42.050;21.516;2024-03-06T03:15:20;17.65;;;9.02;;
80195;SDS011;69516;42.050;21.516;2024-03-06T03:17:46;16.33;;;8.30;;
80195;SDS011;69516;42.050;21.516;2024-03-06T03:20:12;15.60;;;8.10;;
80195;SDS011;69516;42.050;21.516;2024-03-06T03:22:41;17.25;;;8.88;;
80195;SDS011;69516;42.050;21.516;2024-03-06T03:25:08;16.27;;;8.50;;
80195;SDS011;69516;42.050;21.516;2024-03-06T03:27:36;16.90;;;8.40;;
80195;SDS011;69516;42.050;21.516;2024-03-06T03:30:03;28.27;;;14.60;;
80195;SDS011;69516;42.050;21.516;2024-03-06T03:32:30;27.25;;;12.82;;
80195;SDS011;69516;42.050;21.516;2024-03-06T03:34:56;17.52;;;8.70;;
80195;SDS011;69516;42.050;21.516;2024-03-06T03:37:22;21.23;;;11.25;;
80195;SDS011;69516;42.050;21.516;2024-03-06T03:39:48;18.60;;;9.80;;
80195;SDS011;69516;42.050;21.516;2024-03-06T03:42:14;16.38;;;8.73;;
80195;SDS011;69516;42.050;21.516;2024-03-06T03:44:41;17.42;;;10.07;;
80195;SDS011;69516;42.050;21.516;2024-03-06T03:47:07;16.85;;;8.20;;
80195;SDS011;69516;42.050;21.516;2024-03-06T03:49:33;17.42;;;9.05;;
80195;SDS011;69516;42.050;21.516;2024-03-06T03:52:00;19.05;;;9.68;;
80195;SDS011;69516;42.050;21.516;2024-03-06T03:54:26;18.23;;;9.52;;
80195;SDS011;69516;42.050;21.516;2024-03-06T03:56:52;19.35;;;10.18;;
80195;SDS011;69516;42.050;21.516;2024-03-06T03:59:18;20.48;;;10.77;;
80195;SDS011;69516;42.050;21.516;2024-03-06T04:01:45;19.08;;;11.00;;
80195;SDS011;69516;42.050;21.516;2024-03-06T04:04:15;18.70;;;10.23;;
80195;SDS011;69516;42.050;21.516;2024-03-06T04:06:41;25.83;;;11.55;;
80195;SDS011;69516;42.050;21.516;2024-03-06T04:09:07;24.27;;;11.70;;
80195;SDS011;69516;42.050;21.516;2024-03-06T04:11:37;20.77;;;11.75;;
80195;SDS011;69516;42.050;21.516;2024-03-06T04:14:06;22.73;;;11.57;;
80195;SDS011;69516;42.050;21.516;2024-03-06T04:16:35;20.20;;;10.82;;
80195;SDS011;69516;42.050;21.516;2024-03-06T04:21:28;19.98;;;10.27;;
80195;SDS011;69516;42.050;21.516;2024-03-06T04:23:54;21.83;;;10.68;;
80195;SDS011;69516;42.050;21.516;2024-03-06T04:26:21;21.50;;;10.45;;
80195;SDS011;69516;42.050;21.516;2024-03-06T04:28:47;20.90;;;9.70;;
80195;SDS011;69516;42.050;21.516;2024-03-06T04:31:13;16.27;;;9.18;;
80195;SDS011;69516;42.050;21.516;2024-03-06T04:33:40;19.55;;;10.02;;
80195;SDS011;69516;42.050;21.516;2024-03-06T04:36:07;21.05;;;10.40;;
80195;SDS011;69516;42.050;21.516;2024-03-06T04:38:33;20.33;;;10.35;;
80195;SDS011;69516;42.050;21.516;2024-03-06T04:41:00;18.60;;;9.68;;
80195;SDS011;69516;42.050;21.516;2024-03-06T04:43:26;16.92;;;9.30;;
80195;SDS011;69516;42.050;21.516;2024-03-06T04:45:52;18.05;;;8.93;;
80195;SDS011;69516;42.050;21.516;2024-03-06T04:48:18;21.95;;;9.95;;
80195;SDS011;69516;42.050;21.516;2024-03-06T04:50:44;16.30;;;9.32;;
80195;SDS011;69516;42.050;21.516;2024-03-06T04:53:11;16.63;;;9.23;;
80195;SDS011;69516;42.050;21.516;2024-03-06T04:55:37;25.80;;;11.07;;
80195;SDS011;69516;42.050;21.516;2024-03-06T04:58:03;21.52;;;11.48;;
80195;SDS011;69516;42.050;21.516;2024-03-06T05:00:30;27.10;;;12.60;;
80195;SDS011;69516;42.050;21.516;2024-03-06T05:02:56;28.27;;;15.55;;
80195;SDS011;69516;42.050;21.516;2024-03-06T05:05:22;26.35;;;11.75;;
80195;SDS011;69516;42.050;21.516;2024-03-06T05:07:50;22.50;;;12.38;;
80195;SDS011;69516;42.050;21.516;2024-03-06T05:10:16;22.48;;;11.93;;
80195;SDS011;69516;42.050;21.516;2024-03-06T05:12:43;21.65;;;11.38;;
80195;SDS011;69516;42.050;21.516;2024-03-06T05:15:09;23.75;;;12.43;;
80195;SDS011;69516;42.050;21.516;2024-03-06T05:17:36;25.02;;;12.52;;
80195;SDS011;69516;42.050;21.516;2024-03-06T05:20:02;24.95;;;12.60;;
80195;SDS011;69516;42.050;21.516;2024-03-06T05:22:29;24.77;;;12.77;;
80195;SDS011;69516;42.050;21.516;2024-03-06T05:24:55;36.95;;;14.80;;
80195;SDS011;69516;42.050;21.516;2024-03-06T05:27:21;26.10;;;14.02;;
80195;SDS011;69516;42.050;21.516;2024-03-06T05:29:47;26.23;;;13.88;;
80195;SDS011;69516;42.050;21.516;2024-03-06T05:32:14;26.17;;;13.95;;
80195;SDS011;69516;42.050;21.516;2024-03-06T05:34:40;24.13;;;12.55;;
80195;SDS011;69516;42.050;21.516;2024-03-06T05:37:06;26.15;;;13.23;;
80195;SDS011;69516;42.050;21.516;2024-03-06T05:39:32;23.50;;;12.65;;
80195;SDS011;69516;42.050;21.516;2024-03-06T05:42:02;22.08;;;12.55;;
80195;SDS011;69516;42.050;21.516;2024-03-06T05:44:29;24.85;;;11.55;;
80195;SDS011;69516;42.050;21.516;2024-03-06T05:46:56;25.38;;;11.30;;
80195;SDS011;69516;42.050;21.516;2024-03-06T05:49:23;23.10;;;12.27;;
80195;SDS011;69516;42.050;21.516;2024-03-06T05:51:49;25.73;;;13.73;;
80195;SDS011;69516;42.050;21.516;2024-03-06T05:54:15;29.02;;;13.98;;
80195;SDS011;69516;42.050;21.516;2024-03-06T05:56:42;24.92;;;12.48;;
80195;SDS011;69516;42.050;21.516;2024-03-06T05:59:08;24.30;;;12.60;;
80195;SDS011;69516;42.050;21.516;2024-03-06T06:01:34;24.80;;;13.05;;
80195;SDS011;69516;42.050;21.516;2024-03-06T06:04:01;22.83;;;12.10;;
80195;SDS011;69516;42.050;21.516;2024-03-06T06:06:27;26.40;;;12.48;;
80195;SDS011;69516;42.050;21.516;2024-03-06T06:08:53;19.88;;;11.02;;
80195;SDS011;69516;42.050;21.516;2024-03-06T06:11:19;24.60;;;12.50;;
80195;SDS011;69516;42.050;21.516;2024-03-06T06:13:45;21.98;;;12.23;;
80195;SDS011;69516;42.050;21.516;2024-03-06T06:16:12;22.70;;;12.07;;
80195;SDS011;69516;42.050;21.516;2024-03-06T06:18:40;19.08;;;11.25;;
80195;SDS011;69516;42.050;21.516;2024-03-06T06:21:07;21.48;;;11.65;;
80195;SDS011;69516;42.050;21.516;2024-03-06T06:23:33;21.50;;;11.93;;
80195;SDS011;69516;42.050;21.516;2024-03-06T06:26:00;22.85;;;12.88;;
80195;SDS011;69516;42.050;21.516;2024-03-06T06:28:26;21.33;;;12.82;;
80195;SDS011;69516;42.050;21.516;2024-03-06T06:30:52;21.65;;;11.98;;
80195;SDS011;69516;42.050;21.516;2024-03-06T06:33:18;23.38;;;13.27;;
80195;SDS011;69516;42.050;21.516;2024-03-06T06:35:45;25.90;;;12.80;;
80195;SDS011;69516;42.050;21.516;2024-03-06T06:38:11;21.70;;;12.15;;
80195;SDS011;69516;42.050;21.516;2024-03-06T06:40:38;22.60;;;12.93;;
80195;SDS011;69516;42.050;21.516;2024-03-06T06:43:05;23.27;;;13.43;;
80195;SDS011;69516;42.050;21.516;2024-03-06T06:45:31;25.75;;;12.80;;
80195;SDS011;69516;42.050;21.516;2024-03-06T06:47:57;24.73;;;14.05;;
80195;SDS011;69516;42.050;21.516;2024-03-06T06:50:24;24.52;;;13.63;;
80195;SDS011;69516;42.050;21.516;2024-03-06T06:52:52;24.80;;;14.23;;
80195;SDS011;69516;42.050;21.516;2024-03-06T06:55:18;29.80;;;14.68;;
80195;SDS011;69516;42.050;21.516;2024-03-06T06:57:48;22.85;;;12.77;;
80195;SDS011;69516;42.050;21.516;2024-03-06T07:00:14;23.17;;;12.73;;
80195;SDS011;69516;42.050;21.516;2024-03-06T07:02:43;25.20;;;15.23;;
80195;SDS011;69516;42.050;21.516;2024-03-06T07:05:10;28.77;;;14.75;;
80195;SDS011;69516;42.050;21.516;2024-03-06T07:07:37;26.75;;;14.00;;
80195;SDS011;69516;42.050;21.516;2024-03-06T07:10:05;24.25;;;13.98;;
80195;SDS011;69516;42.050;21.516;2024-03-06T07:12:31;27.30;;;13.88;;
80195;SDS011;69516;42.050;21.516;2024-03-06T07:14:58;27.65;;;13.75;;
80195;SDS011;69516;42.050;21.516;2024-03-06T07:17:24;25.30;;;13.82;;
80195;SDS011;69516;42.050;21.516;2024-03-06T07:19:54;29.02;;;15.30;;
80195;SDS011;69516;42.050;21.516;2024-03-06T07:22:21;24.75;;;14.40;;
80195;SDS011;69516;42.050;21.516;2024-03-06T07:24:48;23.27;;;14.40;;
80195;SDS011;69516;42.050;21.516;2024-03-06T07:27:14;25.02;;;13.90;;
80195;SDS011;69516;42.050;21.516;2024-03-06T07:29:40;24.83;;;15.13;;
80195;SDS011;69516;42.050;21.516;2024-03-06T07:32:06;28.90;;;15.35;;
80195;SDS011;69516;42.050;21.516;2024-03-06T07:34:32;26.17;;;14.80;;
80195;SDS011;69516;42.050;21.516;2024-03-06T07:36:59;27.90;;;13.82;;
80195;SDS011;69516;42.050;21.516;2024-03-06T07:39:25;27.13;;;13.85;;
80195;SDS011;69516;42.050;21.516;2024-03-06T07:41:51;25.13;;;15.25;;
80195;SDS011;69516;42.050;21.516;2024-03-06T07:44:18;20.23;;;13.02;;
80195;SDS011;69516;42.050;21.516;2024-03-06T07:46:45;24.75;;;14.43;;
80195;SDS011;69516;42.050;21.516;2024-03-06T07:49:11;23.70;;;14.00;;
80195;SDS011;69516;42.050;21.516;2024-03-06T07:51:37;25.60;;;13.57;;
80195;SDS011;69516;42.050;21.516;2024-03-06T07:56:35;25.65;;;13.05;;
80195;SDS011;69516;42.050;21.516;2024-03-06T07:59:01;22.17;;;13.07;;
80195;SDS011;69516;42.050;21.516;2024-03-06T08:01:29;24.65;;;13.85;;
80195;SDS011;69516;42.050;21.516;2024-03-06T08:03:56;21.60;;;13.40;;
80195;SDS011;69516;42.050;21.516;2024-03-06T08:06:23;25.20;;;14.20;;
80195;SDS011;69516;42.050;21.516;2024-03-06T08:08:50;24.08;;;14.82;;
80195;SDS011;69516;42.050;21.516;2024-03-06T08:11:17;22.58;;;14.43;;
80195;SDS011;69516;42.050;21.516;2024-03-06T08:13:43;25.63;;;14.32;;
80195;SDS011;69516;42.050;21.516;2024-03-06T08:16:09;23.40;;;13.65;;
80195;SDS011;69516;42.050;21.516;2024-03-06T08:18:36;25.05;;;12.98;;
80195;SDS011;69516;42.050;21.516;2024-03-06T08:21:02;23.73;;;13.48;;
80195;SDS011;69516;42.050;21.516;2024-03-06T08:23:30;23.20;;;13.65;;
80195;SDS011;69516;42.050;21.516;2024-03-06T08:25:57;22.10;;;13.68;;
80195;SDS011;69516;42.050;21.516;2024-03-06T08:28:24;30.70;;;17.23;;
80195;SDS011;69516;42.050;21.516;2024-03-06T08:30:50;22.92;;;14.32;;
80195;SDS011;69516;42.050;21.516;2024-03-06T08:33:17;21.75;;;12.68;;
80195;SDS011;69516;42.050;21.516;2024-03-06T08:38:12;21.90;;;12.10;;
80195;SDS011;69516;42.050;21.516;2024-03-06T08:40:38;22.60;;;12.77;;
80195;SDS011;69516;42.050;21.516;2024-03-06T08:43:06;19.45;;;11.20;;
80195;SDS011;69516;42.050;21.516;2024-03-06T08:45:34;25.38;;;13.75;;
80195;SDS011;69516;42.050;21.516;2024-03-06T08:48:00;24.65;;;13.98;;
80195;SDS011;69516;42.050;21.516;2024-03-06T08:50:26;22.05;;;12.23;;
80195;SDS011;69516;42.050;21.516;2024-03-06T08:52:52;23.35;;;13.60;;
80195;SDS011;69516;42.050;21.516;2024-03-06T08:55:18;22.75;;;12.85;;
80195;SDS011;69516;42.050;21.516;2024-03-06T08:57:44;23.02;;;13.18;;
80195;SDS011;69516;42.050;21.516;2024-03-06T09:00:11;20.73;;;12.10;;
80195;SDS011;69516;42.050;21.516;2024-03-06T09:02:37;21.90;;;12.60;;
80195;SDS011;69516;42.050;21.516;2024-03-06T09:05:05;25.25;;;13.35;;
80195;SDS011;69516;42.050;21.516;2024-03-06T09:07:31;23.75;;;13.30;;
80195;SDS011;69516;42.050;21.516;2024-03-06T09:10:02;23.60;;;13.50;;
80195;SDS011;69516;42.050;21.516;2024-03-06T09:12:29;21.90;;;12.63;;
80195;SDS011;69516;42.050;21.516;2024-03-06T09:14:55;21.42;;;12.77;;
80195;SDS011;69516;42.050;21.516;2024-03-06T09:17:21;22.58;;;13.07;;
80195;SDS011;69516;42.050;21.516;2024-03-06T09:19:47;22.40;;;13.68;;
80195;SDS011;69516;42.050;21.516;2024-03-06T09:22:13;21.55;;;12.57;;
80195;SDS011;69516;42.050;21.516;2024-03-06T09:24:39;22.67;;;13.90;;
80195;SDS011;69516;42.050;21.516;2024-03-06T09:27:05;25.80;;;14.52;;
80195;SDS011;69516;42.050;21.516;2024-03-06T09:29:31;25.23;;;14.57;;
80195;SDS011;69516;42.050;21.516;2024-03-06T09:31:58;22.83;;;13.60;;
80195;SDS011;69516;42.050;21.516;2024-03-06T09:34:24;25.45;;;14.93;;
80195;SDS011;69516;42.050;21.516;2024-03-06T09:36:50;23.98;;;14.23;;
80195;SDS011;69516;42.050;21.516;2024-03-06T09:39:17;29.73;;;15.73;;
80195;SDS011;69516;42.050;21.516;2024-03-06T09:41:48;27.00;;;15.57;;
80195;SDS011;69516;42.050;21.516;2024-03-06T09:44:15;25.00;;;14.68;;
80195;SDS011;69516;42.050;21.516;2024-03-06T09:46:45;24.80;;;13.68;;
80195;SDS011;69516;42.050;21.516;2024-03-06T09:49:11;24.98;;;14.40;;
80195;SDS011;69516;42.050;21.516;2024-03-06T09:54:07;21.52;;;12.90;;
80195;SDS011;69516;42.050;21.516;2024-03-06T09:56:34;23.73;;;13.02;;
80195;SDS011;69516;42.050;21.516;2024-03-06T09:59:00;22.58;;;13.73;;
80195;SDS011;69516;42.050;21.516;2024-03-06T10:01:29;25.85;;;14.80;;
80195;SDS011;69516;42.050;21.516;2024-03-06T10:06:23;21.17;;;13.23;;
80195;SDS011;69516;42.050;21.516;2024-03-06T10:08:50;21.92;;;13.70;;
80195;SDS011;69516;42.050;21.516;2024-03-06T10:11:17;22.55;;;12.98;;
80195;SDS011;69516;42.050;21.516;2024-03-06T10:13:45;24.08;;;14.23;;
80195;SDS011;69516;42.050;21.516;2024-03-06T10:16:11;24.13;;;14.43;;
80195;SDS011;69516;42.050;21.516;2024-03-06T10:18:39;25.73;;;15.27;;
80195;SDS011;69516;42.050;21.516;2024-03-06T10:21:05;23.98;;;13.80;;
80195;SDS011;69516;42.050;21.516;2024-03-06T10:23:31;23.70;;;14.50;;
80195;SDS011;69516;42.050;21.516;2024-03-06T10:25:57;26.45;;;15.23;;
80195;SDS011;69516;42.050;21.516;2024-03-06T10:28:27;27.05;;;15.10;;
80195;SDS011;69516;42.050;21.516;2024-03-06T10:31:02;26.33;;;15.05;;
80195;SDS011;69516;42.050;21.516;2024-03-06T10:33:28;25.48;;;16.30;;
80195;SDS011;69516;42.050;21.516;2024-03-06T10:35:55;28.23;;;15.73;;
80195;SDS011;69516;42.050;21.516;2024-03-06T10:38:23;24.65;;;15.95;;
80195;SDS011;69516;42.050;21.516;2024-03-06T10:40:51;26.63;;;16.83;;
80195;SDS011;69516;42.050;21.516;2024-03-06T10:43:17;26.67;;;14.95;;
80195;SDS011;69516;42.050;21.516;2024-03-06T10:45:51;22.20;;;14.57;;
80195;SDS011;69516;42.050;21.516;2024-03-06T10:48:21;20.33;;;12.90;;
80195;SDS011;69516;42.050;21.516;2024-03-06T10:50:48;20.38;;;12.95;;
80195;SDS011;69516;42.050;21.516;2024-03-06T10:53:15;20.95;;;12.18;;
80195;SDS011;69516;42.050;21.516;2024-03-06T10:55:45;20.05;;;12.23;;
80195;SDS011;69516;42.050;21.516;2024-03-06T10:58:12;19.38;;;12.38;;
80195;SDS011;69516;42.050;21.516;2024-03-06T11:00:42;18.55;;;11.13;;
80195;SDS011;69516;42.050;21.516;2024-03-06T11:03:13;19.23;;;11.63;;
80195;SDS011;69516;42.050;21.516;2024-03-06T11:05:40;17.77;;;10.98;;
80195;SDS011;69516;42.050;21.516;2024-03-06T11:08:07;14.48;;;9.27;;
80195;SDS011;69516;42.050;21.516;2024-03-06T11:10:34;17.40;;;10.38;;
80195;SDS011;69516;42.050;21.516;2024-03-06T11:13:44;15.18;;;8.80;;
80195;SDS011;69516;42.050;21.516;2024-03-06T11:15:53;16.20;;;9.75;;
80195;SDS011;69516;42.050;21.516;2024-03-06T11:23:30;12.40;;;7.65;;
80195;SDS011;69516;42.050;21.516;2024-03-06T11:28:30;12.00;;;7.00;;
80195;SDS011;69516;42.050;21.516;2024-03-06T11:31:09;14.75;;;9.20;;
80195;SDS011;69516;42.050;21.516;2024-03-06T11:33:39;16.23;;;9.65;;
80195;SDS011;69516;42.050;21.516;2024-03-06T11:38:47;12.65;;;7.85;;
80195;SDS011;69516;42.050;21.516;2024-03-06T11:41:13;16.05;;;9.40;;
80195;SDS011;69516;42.050;21.516;2024-03-06T11:43:43;17.15;;;9.85;;
80195;SDS011;69516;42.050;21.516;2024-03-06T11:46:12;16.33;;;10.20;;
80195;SDS011;69516;42.050;21.516;2024-03-06T11:48:38;16.85;;;10.15;;
80195;SDS011;69516;42.050;21.516;2024-03-06T11:51:05;17.73;;;11.40;;
80195;SDS011;69516;42.050;21.516;2024-03-06T11:53:34;17.17;;;9.90;;
80195;SDS011;69516;42.050;21.516;2024-03-06T11:56:08;16.17;;;9.38;;
80195;SDS011;69516;42.050;21.516;2024-03-06T11:58:34;15.02;;;8.63;;
80195;SDS011;69516;42.050;21.516;2024-03-06T12:01:01;15.27;;;8.70;;
80195;SDS011;69516;42.050;21.516;2024-03-06T12:03:29;14.18;;;8.40;;
80195;SDS011;69516;42.050;21.516;2024-03-06T12:05:58;13.85;;;7.28;;
80195;SDS011;69516;42.050;21.516;2024-03-06T12:11:10;9.38;;;6.50;;
80195;SDS011;69516;42.050;21.516;2024-03-06T12:13:36;12.25;;;6.55;;
80195;SDS011;69516;42.050;21.516;2024-03-06T12:16:06;13.05;;;6.90;;
80195;SDS011;69516;42.050;21.516;2024-03-06T12:18:33;14.25;;;7.50;;
80195;SDS011;69516;42.050;21.516;2024-03-06T12:21:02;15.45;;;7.60;;
80195;SDS011;69516;42.050;21.516;2024-03-06T12:23:28;11.90;;;6.88;;
80195;SDS011;69516;42.050;21.516;2024-03-06T12:26:07;12.27;;;7.03;;
80195;SDS011;69516;42.050;21.516;2024-03-06T12:28:37;12.82;;;7.30;;
80195;SDS011;69516;42.050;21.516;2024-03-06T12:31:04;12.13;;;7.68;;
80195;SDS011;69516;42.050;21.516;2024-03-06T12:33:31;11.80;;;7.70;;
80195;SDS011;69516;42.050;21.516;2024-03-06T12:36:05;12.80;;;7.55;;
80195;SDS011;69516;42.050;21.516;2024-03-06T12:38:35;13.52;;;7.80;;
80195;SDS011;69516;42.050;21.516;2024-03-06T12:41:02;14.60;;;7.75;;
80195;SDS011;69516;42.050;21.516;2024-03-06T12:43:29;12.50;;;6.90;;
80195;SDS011;69516;42.050;21.516;2024-03-06T12:45:55;12.95;;;7.18;;
80195;SDS011;69516;42.050;21.516;2024-03-06T12:48:22;11.80;;;6.55;;
80195;SDS011;69516;42.050;21.516;2024-03-06T12:53:23;11.57;;;6.80;;
80195;SDS011;69516;42.050;21.516;2024-03-06T12:55:49;11.75;;;7.10;;
80195;SDS011;69516;42.050;21.516;2024-03-06T12:58:15;9.85;;;5.53;;
80195;SDS011;69516;42.050;21.516;2024-03-06T13:00:41;11.85;;;6.90;;
80195;SDS011;69516;42.050;21.516;2024-03-06T13:03:08;11.18;;;6.65;;
80195;SDS011;69516;42.050;21.516;2024-03-06T13:05:35;11.00;;;6.70;;
80195;SDS011;69516;42.050;21.516;2024-03-06T13:08:02;10.65;;;6.55;;
80195;SDS011;69516;42.050;21.516;2024-03-06T13:10:28;10.52;;;6.32;;
80195;SDS011;69516;42.050;21.516;2024-03-06T13:12:54;11.52;;;6.82;;
80195;SDS011;69516;42.050;21.516;2024-03-06T13:15:20;10.68;;;5.90;;
80195;SDS011;69516;42.050;21.516;2024-03-06T13:17:47;11.63;;;6.80;;
80195;SDS011;69516;42.050;21.516;2024-03-06T13:20:13;9.88;;;6.13;;
80195;SDS011;69516;42.050;21.516;2024-03-06T13:22:39;14.52;;;8.40;;
80195;SDS011;69516;42.050;21.516;2024-03-06T13:25:06;11.95;;;6.53;;
80195;SDS011;69516;42.050;21.516;2024-03-06T13:27:32;9.05;;;6.03;;
80195;SDS011;69516;42.050;21.516;2024-03-06T13:29:58;10.57;;;6.57;;
80195;SDS011;69516;42.050;21.516;2024-03-06T13:32:24;12.20;;;6.95;;
80195;SDS011;69516;42.050;21.516;2024-03-06T13:34:51;12.82;;;6.40;;
80195;SDS011;69516;42.050;21.516;2024-03-06T13:37:18;14.02;;;6.30;;
80195;SDS011;69516;42.050;21.516;2024-03-06T13:39:47;9.85;;;6.03;;
80195;SDS011;69516;42.050;21.516;2024-03-06T13:42:13;10.35;;;5.80;;
80195;SDS011;69516;42.050;21.516;2024-03-06T13:44:39;9.18;;;5.13;;
80195;SDS011;69516;42.050;21.516;2024-03-06T13:47:05;10.70;;;5.30;;
80195;SDS011;69516;42.050;21.516;2024-03-06T13:52:02;9.60;;;5.30;;
80195;SDS011;69516;42.050;21.516;2024-03-06T13:54:30;11.82;;;5.45;;
80195;SDS011;69516;42.050;21.516;2024-03-06T13:56:56;11.18;;;5.55;;
80195;SDS011;69516;42.050;21.516;2024-03-06T13:59:32;8.77;;;4.97;;
80195;SDS011;69516;42.050;21.516;2024-03-06T14:02:00;9.13;;;4.68;;
80195;SDS011;69516;42.050;21.516;2024-03-06T14:04:26;10.77;;;4.75;;
80195;SDS011;69516;42.050;21.516;2024-03-06T14:06:54;8.88;;;4.70;;
80195;SDS011;69516;42.050;21.516;2024-03-06T14:09:22;10.35;;;5.40;;
80195;SDS011;69516;42.050;21.516;2024-03-06T14:11:50;9.32;;;5.22;;
80195;SDS011;69516;42.050;21.516;2024-03-06T14:14:17;9.13;;;5.05;;
80195;SDS011;69516;42.050;21.516;2024-03-06T14:16:43;8.60;;;4.78;;
80195;SDS011;69516;42.050;21.516;2024-03-06T14:19:10;10.75;;;5.45;;
80195;SDS011;69516;42.050;21.516;2024-03-06T14:21:36;8.85;;;5.20;;
80195;SDS011;69516;42.050;21.516;2024-03-06T14:24:03;10.50;;;5.13;;
80195;SDS011;69516;42.050;21.516;2024-03-06T14:26:32;11.30;;;5.50;;
80195;SDS011;69516;42.050;21.516;2024-03-06T14:28:59;11.35;;;6.10;;
80195;SDS011;69516;42.050;21.516;2024-03-06T14:31:27;8.98;;;4.75;;
80195;SDS011;69516;42.050;21.516;2024-03-06T14:33:53;10.52;;;5.05;;
80195;SDS011;69516;42.050;21.516;2024-03-06T14:36:19;8.68;;;4.80;;
80195;SDS011;69516;42.050;21.516;2024-03-06T14:38:51;7.95;;;4.60;;
80195;SDS011;69516;42.050;21.516;2024-03-06T14:41:20;10.43;;;4.63;;
80195;SDS011;69516;42.050;21.516;2024-03-06T14:43:47;13.35;;;6.00;;
80195;SDS011;69516;42.050;21.516;2024-03-06T14:46:13;10.20;;;4.75;;